<?xml version='1.0' encoding='utf-8'?>
<gpx xmlns="http://www.topografix.com/GPX/1/1" xmlns:gpxx="http://www.garmin.com/xmlschemas/GpxExtensions/v3" xmlns:xsi="http://www.w3.org/2001/XMLSchema-instance" creator="eTrex 30" version="1.1" xsi:schemaLocation="http://www.topografix.com/GPX/1/1 http://www.topografix.com/GPX/1/1/gpx.xsd http://www.garmin.com/xmlschemas/GpxExtensions/v3 http://www8.garmin.com/xmlschemas/GpxExtensionsv3.xsd http://www.garmin.com/xmlschemas/WaypointExtension/v1 http://www8.garmin.com/xmlschemas/WaypointExtensionv1.xsd http://www.garmin.com/xmlschemas/TrackPointExtension/v1 http://www.garmin.com/xmlschemas/TrackPointExtensionv1.xsd"><metadata><link href="http://www.garmin.com"><text>Garmin International</text></link><time>2015-11-23T07:46:58Z</time></metadata><trk><name>23-NOV-15 09:46:56</name><extensions><gpxx:TrackExtension><gpxx:DisplayColor>Cyan</gpxx:DisplayColor></gpxx:TrackExtension></extensions><trkseg><trkpt lat="30.6746766251" lon="35.6105560251"><ele>1247.4</ele><time>2015-11-23T06:35:41Z</time></trkpt><trkpt lat="30.6748199556" lon="35.6106063165"><ele>1246.3</ele><time>2015-11-23T06:36:28Z</time></trkpt><trkpt lat="30.6753931101" lon="35.6099757459"><ele>1232.0</ele><time>2015-11-23T06:39:01Z</time></trkpt><trkpt lat="30.6754907593" lon="35.6106229965"><ele>1233.4</ele><time>2015-11-23T06:42:01Z</time></trkpt><trkpt lat="30.6757838745" lon="35.6108900439"><ele>1229.5</ele><time>2015-11-23T06:42:55Z</time></trkpt><trkpt lat="30.6761090923" lon="35.6109187100"><ele>1222.7</ele><time>2015-11-23T06:43:59Z</time></trkpt><trkpt lat="30.6776189245" lon="35.6119540427"><ele>1220.2</ele><time>2015-11-23T06:47:39Z</time></trkpt><trkpt lat="30.6780107785" lon="35.6120268814"><ele>1219.1</ele><time>2015-11-23T06:48:28Z</time></trkpt><trkpt lat="30.6789935566" lon="35.6128065661"><ele>1237.8</ele><time>2015-11-23T06:52:45Z</time></trkpt><trkpt lat="30.6797092874" lon="35.6129383296"><ele>1239.9</ele><time>2015-11-23T06:59:54Z</time></trkpt><trkpt lat="30.6799902488" lon="35.6136200298"><ele>1283.1</ele><time>2015-11-23T07:05:22Z</time></trkpt><trkpt lat="30.6796403881" lon="35.6138105504"><ele>1293.0</ele><time>2015-11-23T07:13:20Z</time></trkpt><trkpt lat="30.6798666157" lon="35.6140122190"><ele>1301.9</ele><time>2015-11-23T07:14:54Z</time></trkpt><trkpt lat="30.6790327840" lon="35.6141234469"><ele>1308.1</ele><time>2015-11-23T07:23:08Z</time></trkpt><trkpt lat="30.6787978392" lon="35.6138718221"><ele>1302.3</ele><time>2015-11-23T07:34:36Z</time></trkpt><trkpt lat="30.6771781202" lon="35.6136269029"><ele>1328.0</ele><time>2015-11-23T07:37:17Z</time></trkpt><trkpt lat="30.6747948937" lon="35.6128618028"><ele>1293.0</ele><time>2015-11-23T07:41:44Z</time></trkpt><trkpt lat="30.6741138641" lon="35.6123726349"><ele>1278.9</ele><time>2015-11-23T07:43:03Z</time></trkpt><trkpt lat="30.6738488283" lon="35.6117304973"><ele>1274.3</ele><time>2015-11-23T07:44:02Z</time></trkpt><trkpt lat="30.6741475593" lon="35.6112000905"><ele>1263.3</ele><time>2015-11-23T07:45:15Z</time></trkpt><trkpt lat="30.6746636331" lon="35.6107313745"><ele>1249.6</ele><time>2015-11-23T07:46:52Z</time></trkpt></trkseg></trk></gpx>